createdAt,value
2023-01-06T00:00:41.531Z,97908.25
2023-01-06T00:03:09.213Z,97900.75
2023-01-06T00:05:35.984Z,97886.44
2023-01-06T00:08:02.463Z,97866.25
2023-01-06T00:10:29.027Z,97840.72
2023-01-06T00:12:55.762Z,97824.03
2023-01-06T00:15:22.235Z,97795.69
2023-01-06T00:17:48.863Z,97769.75
2023-01-06T00:20:17.055Z,97766.66
2023-01-06T00:22:44.711Z,97750.50
2023-01-06T00:25:12.150Z,97719.47
2023-01-06T00:27:41.016Z,97701.19
2023-01-06T00:30:08.070Z,97648.25
2023-01-06T00:32:35.395Z,97646.31
2023-01-06T00:35:02.696Z,97621.56
2023-01-06T00:37:29.395Z,97596.19
2023-01-06T00:39:55.869Z,97561.72
2023-01-06T00:42:22.854Z,97545.75
2023-01-06T00:44:49.770Z,97491.03
2023-01-06T00:47:16.954Z,97454.59
2023-01-06T00:49:45.546Z,97416.19
2023-01-06T00:52:12.376Z,97390.16
2023-01-06T00:54:39.204Z,97348.28
2023-01-06T00:57:07.639Z,97307.72
2023-01-06T00:59:34.642Z,97252.22
2023-01-06T01:02:01.811Z,97199.91
2023-01-06T01:04:29.310Z,97169.28
2023-01-06T01:06:56.450Z,97127.63
2023-01-06T01:09:29.599Z,97108.28
2023-01-06T01:12:12.613Z,97084.03
2023-01-06T01:14:47.605Z,97069.31
2023-01-06T01:17:19.420Z,97057.41
2023-01-06T01:19:46.537Z,97055.44
2023-01-06T01:22:14.033Z,97050.78
2023-01-06T01:24:40.692Z,97036.66
2023-01-06T01:27:07.413Z,97043.97
2023-01-06T01:29:34.463Z,97051.53
2023-01-06T01:32:01.432Z,97054.97
2023-01-06T01:34:27.882Z,97054.00
2023-01-06T01:36:55.237Z,97050.44
2023-01-06T01:39:25.729Z,97067.47
2023-01-06T01:41:54.041Z,97068.75
2023-01-06T01:44:58.738Z,97070.03
2023-01-06T01:47:49.012Z,97074.59
2023-01-06T01:50:27.339Z,97094.06
2023-01-06T01:52:58.684Z,97102.34
2023-01-06T01:55:27.561Z,97106.28
2023-01-06T01:58:02.709Z,97106.63
2023-01-06T02:00:29.566Z,97110.09
2023-01-06T02:02:57.144Z,97117.53
2023-01-06T02:05:25.748Z,97108.97
2023-01-06T02:07:53.302Z,97107.81
2023-01-06T02:10:22.663Z,97091.63
2023-01-06T02:12:55.061Z,97089.34
2023-01-06T02:15:29.322Z,97085.16
2023-01-06T02:18:17.616Z,97077.88
2023-01-06T02:20:57.087Z,97060.19
2023-01-06T02:23:23.954Z,97081.44
2023-01-06T02:26:28.502Z,97079.81
2023-01-06T02:29:17.932Z,97076.44
2023-01-06T02:31:47.153Z,97095.38
2023-01-06T02:34:51.489Z,97071.59
2023-01-06T02:37:21.120Z,97062.03
2023-01-06T02:40:06.000Z,97037.81
2023-01-06T02:42:57.448Z,97037.47
2023-01-06T02:45:50.557Z,97014.88
2023-01-06T02:48:43.856Z,96990.59
2023-01-06T02:51:19.063Z,96973.03
2023-01-06T02:54:26.324Z,96975.50
2023-01-06T02:57:02.484Z,96976.69
2023-01-06T02:59:37.433Z,96988.03
2023-01-06T03:02:06.307Z,96900.25
2023-01-06T03:04:43.468Z,97001.63
2023-01-06T03:07:12.040Z,97006.53
2023-01-06T03:09:39.828Z,97027.47
2023-01-06T03:12:15.004Z,97050.88
2023-01-06T03:14:47.849Z,97002.97
2023-01-06T03:17:14.694Z,97056.63
2023-01-06T03:19:42.038Z,97076.28
2023-01-06T03:22:09.507Z,97078.66
2023-01-06T03:24:38.067Z,97075.19
2023-01-06T03:27:05.433Z,97071.38
2023-01-06T03:29:32.444Z,97067.81
2023-01-06T03:32:12.655Z,97059.78
2023-01-06T03:35:16.556Z,97055.53
2023-01-06T03:38:22.623Z,97051.06
2023-01-06T03:41:21.369Z,97054.97
2023-01-06T03:44:11.650Z,97048.06
2023-01-06T03:47:08.658Z,97057.59
2023-01-06T03:49:43.455Z,97052.59
2023-01-06T03:52:22.403Z,97069.09
2023-01-06T03:55:03.240Z,97066.34
2023-01-06T03:57:53.034Z,97057.06
2023-01-06T04:00:27.493Z,97056.44
2023-01-06T04:02:54.959Z,97037.22
2023-01-06T04:05:24.471Z,97026.75
2023-01-06T04:07:51.503Z,97017.47
2023-01-06T04:10:19.823Z,97014.25
2023-01-06T04:12:46.653Z,97011.88
2023-01-06T04:15:19.454Z,97005.25
2023-01-06T04:17:48.377Z,96998.59
2023-01-06T04:20:17.659Z,97011.78
2023-01-06T04:22:45.906Z,97009.97
2023-01-06T04:25:12.889Z,97021.81
2023-01-06T04:27:39.486Z,97024.63
2023-01-06T04:30:07.243Z,97031.19
2023-01-06T04:32:35.109Z,97025.75
2023-01-06T04:35:01.620Z,97039.75
2023-01-06T04:37:28.041Z,97071.34
2023-01-06T04:39:54.505Z,97057.69
2023-01-06T04:42:21.015Z,97057.63
2023-01-06T04:44:47.804Z,97080.47
2023-01-06T04:47:14.467Z,97088.41
2023-01-06T04:49:41.004Z,97101.59
2023-01-06T04:52:09.222Z,97117.31
2023-01-06T04:54:36.528Z,97137.13
2023-01-06T04:57:03.781Z,97157.44
2023-01-06T04:59:30.286Z,97158.63
2023-01-06T05:01:56.802Z,97165.69
2023-01-06T05:04:23.645Z,97171.19
2023-01-06T05:06:50.201Z,97177.19
2023-01-06T05:09:16.982Z,97209.03
2023-01-06T05:11:43.467Z,97208.53
2023-01-06T05:14:11.052Z,97183.88
2023-01-06T05:16:38.573Z,97178.50
2023-01-06T05:19:05.173Z,97141.69
2023-01-06T05:21:32.996Z,97157.81
2023-01-06T05:24:00.313Z,97161.34
2023-01-06T05:26:28.114Z,97165.56
2023-01-06T05:28:57.229Z,97179.41
2023-01-06T05:31:25.172Z,97182.75
2023-01-06T05:33:51.856Z,97184.56
2023-01-06T05:36:19.251Z,97197.56
2023-01-06T05:38:52.246Z,97201.41
2023-01-06T05:41:18.927Z,97220.38
2023-01-06T05:43:48.005Z,97223.69
2023-01-06T05:46:14.722Z,97192.06
2023-01-06T05:48:42.311Z,97216.66
2023-01-06T05:51:15.110Z,97238.88
2023-01-06T05:53:44.325Z,97252.72
2023-01-06T05:56:14.825Z,97273.03
2023-01-06T05:58:45.399Z,97283.94
2023-01-06T06:01:23.438Z,97286.47
2023-01-06T06:03:51.331Z,97289.84
2023-01-06T06:06:19.608Z,97308.03
2023-01-06T06:08:46.340Z,97307.94
2023-01-06T06:11:14.891Z,97337.28
2023-01-06T06:13:55.927Z,97328.09
2023-01-06T06:16:25.197Z,97341.31
2023-01-06T06:18:54.720Z,97355.81
2023-01-06T06:21:25.487Z,97379.56
2023-01-06T06:23:56.701Z,97371.72
2023-01-06T06:26:23.785Z,97402.72
2023-01-06T06:28:50.603Z,97422.88
2023-01-06T06:31:20.610Z,97422.22
2023-01-06T06:33:53.853Z,97456.22
2023-01-06T06:36:21.765Z,97420.41
2023-01-06T06:38:50.541Z,97471.50
2023-01-06T06:41:18.078Z,97481.38
2023-01-06T06:43:45.016Z,97465.63
2023-01-06T06:46:11.786Z,97510.94
2023-01-06T06:48:39.140Z,97528.31
2023-01-06T06:51:08.145Z,97545.13
2023-01-06T06:53:35.298Z,97546.19
2023-01-06T06:56:02.894Z,97580.16
2023-01-06T06:58:29.982Z,97578.50
2023-01-06T07:00:57.030Z,97602.97
2023-01-06T07:03:26.131Z,97622.44
2023-01-06T07:05:53.031Z,97619.78
2023-01-06T07:08:20.629Z,97640.59
2023-01-06T07:10:47.361Z,97646.09
2023-01-06T07:13:14.019Z,97681.72
2023-01-06T07:15:40.577Z,97681.25
2023-01-06T07:18:07.605Z,97707.97
2023-01-06T07:20:36.013Z,97692.16
2023-01-06T07:23:02.558Z,97727.47
2023-01-06T07:25:29.768Z,97742.19
2023-01-06T07:27:59.130Z,97757.84
2023-01-06T07:30:30.386Z,97771.75
2023-01-06T07:32:57.300Z,97788.25
2023-01-06T07:35:23.887Z,97784.13
2023-01-06T07:37:50.540Z,97808.03
2023-01-06T07:40:18.631Z,97805.72
2023-01-06T07:42:45.242Z,97784.13
2023-01-06T07:45:12.400Z,97815.31
2023-01-06T07:47:39.034Z,97815.31
2023-01-06T07:50:06.467Z,97836.13
2023-01-06T07:52:33.223Z,97831.81
2023-01-06T07:54:59.931Z,97841.72
2023-01-06T07:57:27.841Z,97855.59
2023-01-06T07:59:54.773Z,97834.13
2023-01-06T08:02:22.098Z,97856.94
2023-01-06T08:04:49.438Z,97845.53
2023-01-06T08:07:17.214Z,97867.31
2023-01-06T08:09:44.165Z,97857.91
2023-01-06T08:12:12.201Z,97868.97
2023-01-06T08:14:39.084Z,97873.13
2023-01-06T08:17:05.999Z,97879.56
2023-01-06T08:19:32.657Z,97876.28
2023-01-06T08:21:59.361Z,97873.97
2023-01-06T08:24:26.203Z,97871.13
2023-01-06T08:26:52.743Z,97880.88
2023-01-06T08:29:19.244Z,97892.28
2023-01-06T08:31:45.771Z,97903.03
2023-01-06T08:34:14.695Z,97922.84
2023-01-06T08:36:45.751Z,97939.53
2023-01-06T08:39:14.126Z,97941.31
2023-01-06T08:41:41.208Z,97945.78
2023-01-06T08:44:08.330Z,97954.53
2023-01-06T08:46:35.343Z,97954.72
2023-01-06T08:49:02.909Z,97955.69
2023-01-06T08:51:29.631Z,97959.00
2023-01-06T08:53:57.985Z,97971.88
2023-01-06T08:56:28.105Z,97974.56
2023-01-06T08:58:58.943Z,97986.28
2023-01-06T09:01:29.706Z,97988.06
2023-01-06T09:03:59.713Z,97992.38
2023-01-06T09:06:27.353Z,97986.09
2023-01-06T09:08:54.416Z,97991.88
2023-01-06T09:11:20.852Z,97977.41
2023-01-06T09:13:47.788Z,97970.97
2023-01-06T09:16:14.310Z,97984.88
2023-01-06T09:18:41.544Z,97989.50
2023-01-06T09:21:09.010Z,98008.69
2023-01-06T09:23:35.681Z,98013.75
2023-01-06T09:26:02.257Z,98006.00
2023-01-06T09:28:28.747Z,98022.69
2023-01-06T09:30:57.661Z,98028.31
2023-01-06T09:33:25.840Z,98036.75
2023-01-06T09:35:53.401Z,98040.88
2023-01-06T09:38:19.924Z,98046.66
2023-01-06T09:41:23.531Z,98061.56
2023-01-06T09:44:24.610Z,98062.91
2023-01-06T09:46:52.174Z,98064.03
2023-01-06T09:49:43.629Z,98087.03
2023-01-06T09:52:25.917Z,98091.31
2023-01-06T09:55:05.458Z,98102.50
2023-01-06T09:57:46.527Z,98106.00
2023-01-06T10:00:44.102Z,98113.91
2023-01-06T10:03:19.350Z,98114.06
2023-01-06T10:05:51.084Z,98130.63
2023-01-06T10:08:39.280Z,98121.41
2023-01-06T10:11:37.144Z,98124.63
2023-01-06T10:14:27.342Z,98122.00
2023-01-06T10:17:31.359Z,98142.13
2023-01-06T10:20:44.980Z,98130.41
2023-01-06T10:23:23.900Z,98091.81
2023-01-06T10:25:54.841Z,98136.03
2023-01-06T10:28:41.312Z,98090.13
2023-01-06T10:31:12.836Z,98114.69
2023-01-06T10:33:48.999Z,98127.63
2023-01-06T10:36:18.516Z,98125.97
2023-01-06T10:38:49.911Z,98113.56
2023-01-06T10:41:55.351Z,98134.63
2023-01-06T10:44:22.030Z,98129.19
2023-01-06T10:46:50.196Z,98123.91
2023-01-06T10:49:21.109Z,98131.06
2023-01-06T10:52:00.255Z,98128.94
2023-01-06T10:54:34.235Z,98130.13
2023-01-06T10:57:04.497Z,98125.94
2023-01-06T10:59:31.472Z,98127.63
2023-01-06T11:01:59.028Z,98136.72
2023-01-06T11:04:30.063Z,98139.66
2023-01-06T11:07:13.595Z,98129.06
2023-01-06T11:09:44.790Z,98111.50
2023-01-06T11:12:23.472Z,98106.38
2023-01-06T11:15:20.790Z,98095.94
2023-01-06T11:17:48.166Z,98101.88
2023-01-06T11:20:14.643Z,98088.50
2023-01-06T11:22:42.770Z,98085.53
2023-01-06T11:25:30.263Z,98086.56
2023-01-06T11:28:18.515Z,98075.50
2023-01-06T11:30:49.907Z,98087.72
2023-01-06T11:33:23.520Z,98084.09
2023-01-06T11:35:51.179Z,98092.00
2023-01-06T11:38:20.255Z,98103.28
2023-01-06T11:40:52.680Z,98099.47
2023-01-06T11:43:31.554Z,98086.06
2023-01-06T11:46:16.173Z,98098.31
2023-01-06T11:48:49.707Z,98080.25
2023-01-06T11:51:32.103Z,98079.25
2023-01-06T11:53:58.760Z,98077.09
2023-01-06T11:56:25.323Z,98085.69
2023-01-06T11:59:00.919Z,98095.66
2023-01-06T12:01:33.608Z,98097.97
2023-01-06T12:04:19.334Z,98084.38
2023-01-06T12:06:46.630Z,98101.91
2023-01-06T12:09:21.557Z,98106.56
2023-01-06T12:11:50.967Z,98093.69
2023-01-06T12:14:28.951Z,98105.91
2023-01-06T12:17:12.267Z,98105.22
2023-01-06T12:19:57.979Z,98101.63
2023-01-06T12:22:47.008Z,98109.69
2023-01-06T12:25:24.550Z,98097.50
2023-01-06T12:28:04.529Z,98106.28
2023-01-06T12:30:48.424Z,98104.91
2023-01-06T12:33:18.941Z,98107.91
2023-01-06T12:35:49.029Z,98114.81
2023-01-06T12:38:41.288Z,98104.25
2023-01-06T12:41:32.502Z,98113.47
2023-01-06T12:44:23.688Z,98105.53
2023-01-06T12:47:05.293Z,98100.81
2023-01-06T12:49:46.512Z,98098.50
2023-01-06T12:52:27.898Z,98096.00
2023-01-06T12:54:57.971Z,98119.13
2023-01-06T12:57:39.490Z,98111.22
2023-01-06T13:00:14.315Z,98123.75
2023-01-06T13:03:08.140Z,98115.66
2023-01-06T13:05:53.413Z,98133.31
2023-01-06T13:08:45.562Z,98133.34
2023-01-06T13:11:19.130Z,98114.16
2023-01-06T13:13:54.061Z,98110.88
2023-01-06T13:16:42.921Z,98124.09
2023-01-06T13:19:21.522Z,98113.47
2023-01-06T13:21:57.605Z,98113.66
2023-01-06T13:25:13.705Z,98117.47
2023-01-06T13:27:58.795Z,98110.84
2023-01-06T13:30:36.309Z,98106.69
2023-01-06T13:33:27.995Z,98098.06
2023-01-06T13:36:23.393Z,98092.59
2023-01-06T13:39:04.038Z,98080.34
2023-01-06T13:41:35.677Z,98083.44
2023-01-06T13:44:05.327Z,98068.91
2023-01-06T13:46:36.560Z,98069.38
2023-01-06T13:49:05.111Z,98068.41
2023-01-06T13:51:36.555Z,98060.41
2023-01-06T13:54:03.572Z,98048.16
2023-01-06T13:56:32.414Z,98030.69
2023-01-06T13:59:22.592Z,98012.66
2023-01-06T14:01:50.343Z,97995.63
2023-01-06T14:04:28.921Z,97981.59
2023-01-06T14:06:55.880Z,97971.47
2023-01-06T14:09:22.409Z,97956.06
2023-01-06T14:11:48.997Z,97928.84
2023-01-06T14:14:32.919Z,97915.84
2023-01-06T14:16:59.205Z,97920.94
2023-01-06T14:19:31.306Z,97905.59
2023-01-06T14:22:19.451Z,97899.50
2023-01-06T14:24:52.746Z,97881.00
2023-01-06T14:27:46.880Z,97875.22
2023-01-06T14:30:30.546Z,97881.63
2023-01-06T14:33:14.852Z,97874.84
2023-01-06T14:35:44.609Z,97840.50
2023-01-06T14:38:20.452Z,97846.78
2023-01-06T14:40:56.088Z,97841.63
2023-01-06T14:43:46.601Z,97821.88
2023-01-06T14:46:24.734Z,97805.03
2023-01-06T14:48:59.879Z,97814.41
2023-01-06T14:54:33.976Z,97784.88
2023-01-06T14:57:03.440Z,97788.16
2023-01-06T14:59:30.016Z,97777.59
2023-01-06T15:02:13.561Z,97784.88
2023-01-06T15:04:43.081Z,97790.16
2023-01-06T15:07:20.908Z,97795.44
2023-01-06T15:09:50.042Z,97801.03
2023-01-06T15:12:24.254Z,97810.28
2023-01-06T15:14:50.954Z,97819.00
2023-01-06T15:17:18.162Z,97846.22
2023-01-06T15:19:46.693Z,97852.16
2023-01-06T15:22:20.391Z,97859.38
2023-01-06T15:24:47.877Z,97859.06
2023-01-06T15:27:17.207Z,97871.09
2023-01-06T15:29:54.784Z,97885.75
2023-01-06T15:32:23.313Z,97897.59
2023-01-06T15:34:52.420Z,97887.22
2023-01-06T15:37:22.775Z,97891.31
2023-01-06T15:39:49.821Z,97888.69
2023-01-06T15:42:21.241Z,97887.06
2023-01-06T15:45:01.525Z,97882.09
2023-01-06T15:47:45.820Z,97883.59
2023-01-06T15:50:21.557Z,97877.81
2023-01-06T15:52:52.287Z,97872.72
2023-01-06T15:55:48.893Z,97875.88
2023-01-06T15:58:21.725Z,97864.94
2023-01-06T16:00:59.425Z,97883.97
2023-01-06T16:03:27.846Z,97889.56
2023-01-06T16:06:26.644Z,97883.81
2023-01-06T16:08:53.390Z,97889.06
2023-01-06T16:11:47.604Z,97887.78
2023-01-06T16:14:30.917Z,97886.13
2023-01-06T16:17:12.673Z,97887.13
2023-01-06T16:20:21.989Z,97897.38
2023-01-06T16:22:51.713Z,97902.31
2023-01-06T16:25:20.947Z,97899.63
2023-01-06T16:27:49.691Z,97890.34
2023-01-06T16:30:24.416Z,97861.03
2023-01-06T16:32:53.391Z,97828.38
2023-01-06T16:35:31.166Z,97812.34
2023-01-06T16:37:58.157Z,97798.19
2023-01-06T16:40:26.955Z,97789.47
2023-01-06T16:43:02.304Z,97790.78
2023-01-06T16:45:31.872Z,97787.16
2023-01-06T16:47:58.618Z,97792.28
2023-01-06T16:50:31.052Z,97795.22
2023-01-06T16:53:21.482Z,97794.88
2023-01-06T16:55:56.008Z,97797.22
2023-01-06T16:58:26.024Z,97793.91
2023-01-06T17:00:54.570Z,97799.69
2023-01-06T17:03:24.012Z,97802.66
2023-01-06T17:05:51.955Z,97793.09
2023-01-06T17:08:34.709Z,97789.16
2023-01-06T17:11:06.606Z,97793.41
2023-01-06T17:13:35.812Z,97787.69
2023-01-06T17:16:13.600Z,97794.06
2023-01-06T17:18:55.983Z,97781.88
2023-01-06T17:21:27.895Z,97772.31
2023-01-06T17:24:14.838Z,97767.38
2023-01-06T17:26:48.972Z,97760.47
2023-01-06T17:29:18.615Z,97758.78
2023-01-06T17:31:46.911Z,97760.13
2023-01-06T17:34:21.242Z,97759.97
2023-01-06T17:36:50.470Z,97759.13
2023-01-06T17:39:23.669Z,97764.41
2023-01-06T17:41:57.151Z,97764.28
2023-01-06T17:44:33.870Z,97784.22
2023-01-06T17:47:00.418Z,97787.22
2023-01-06T17:49:34.506Z,97792.81
2023-01-06T17:52:13.803Z,97795.13
2023-01-06T17:54:58.888Z,97811.97
2023-01-06T17:57:26.224Z,97817.09
2023-01-06T17:59:55.565Z,97835.06
2023-01-06T18:02:43.104Z,97835.88
2023-01-06T18:05:43.853Z,97845.94
2023-01-06T18:08:14.665Z,97844.44
2023-01-06T18:10:50.543Z,97854.03
2023-01-06T18:13:18.466Z,97857.81
2023-01-06T18:15:52.002Z,97861.59
2023-01-06T18:18:27.493Z,97864.75
2023-01-06T18:20:58.646Z,97869.38
2023-01-06T18:23:26.913Z,97876.28
2023-01-06T18:25:59.025Z,97880.28
2023-01-06T18:28:25.658Z,97887.88
2023-01-06T18:31:02.633Z,97900.44
2023-01-06T18:33:29.790Z,97900.44
2023-01-06T18:35:59.138Z,97911.00
2023-01-06T18:38:30.128Z,97920.53
2023-01-06T18:40:56.670Z,97927.19
2023-01-06T18:43:28.030Z,97926.47
2023-01-06T18:45:59.865Z,97908.13
2023-01-06T18:48:32.865Z,97930.63
2023-01-06T18:51:01.441Z,97928.81
2023-01-06T18:53:30.339Z,97936.06
2023-01-06T18:56:00.747Z,97941.03
2023-01-06T18:58:41.371Z,97942.53
2023-01-06T19:01:22.277Z,97951.44
2023-01-06T19:04:05.987Z,97949.31
2023-01-06T19:06:41.690Z,97954.91
2023-01-06T19:09:26.648Z,97956.91
2023-01-06T19:12:14.766Z,97966.47
2023-01-06T19:14:43.687Z,97964.81
2023-01-06T19:17:46.815Z,97961.19
2023-01-06T19:20:29.333Z,97961.81
2023-01-06T19:22:57.071Z,97954.56
2023-01-06T19:25:34.754Z,97957.50
2023-01-06T19:28:06.833Z,97960.78
2023-01-06T19:31:01.247Z,97954.19
2023-01-06T19:33:32.924Z,97945.31
2023-01-06T19:36:26.526Z,97950.94
2023-01-06T19:38:53.152Z,97953.72
2023-01-06T19:41:28.781Z,97961.19
2023-01-06T19:44:06.276Z,97953.41
2023-01-06T19:46:38.573Z,97959.19
2023-01-06T19:49:39.398Z,97966.47
2023-01-06T19:52:37.785Z,97957.88
2023-01-06T19:55:27.453Z,97949.78
2023-01-06T19:58:01.612Z,97950.63
2023-01-06T20:00:29.972Z,97959.84
2023-01-06T20:03:00.018Z,97952.09
2023-01-06T20:05:27.403Z,97956.22
2023-01-06T20:07:54.255Z,97960.66
2023-01-06T20:10:21.206Z,97957.03
2023-01-06T20:12:48.807Z,97967.75
2023-01-06T20:15:15.850Z,97968.44
2023-01-06T20:17:42.279Z,97966.47
2023-01-06T20:20:09.640Z,97972.22
2023-01-06T20:22:36.460Z,97972.75
2023-01-06T20:25:03.827Z,97970.91
2023-01-06T20:27:30.379Z,97973.56
2023-01-06T20:29:56.893Z,97973.03
2023-01-06T20:32:23.295Z,97970.38
2023-01-06T20:34:49.874Z,97967.41
2023-01-06T20:37:16.331Z,97976.66
2023-01-06T20:39:43.261Z,97955.19
2023-01-06T20:42:11.896Z,97955.50
2023-01-06T20:44:40.515Z,97947.22
2023-01-06T20:47:07.030Z,97944.44
2023-01-06T20:49:34.503Z,97945.59
2023-01-06T20:52:01.050Z,97947.03
2023-01-06T20:54:27.587Z,97950.66
2023-01-06T20:56:54.001Z,97951.19
2023-01-06T20:59:20.638Z,97951.78
2023-01-06T21:01:47.246Z,97965.03
2023-01-06T21:04:13.734Z,97972.28
2023-01-06T21:06:40.135Z,97962.56
2023-01-06T21:09:06.607Z,97978.91
2023-01-06T21:11:33.067Z,97983.88
2023-01-06T21:13:59.553Z,97989.16
2023-01-06T21:16:26.063Z,97994.78
2023-01-06T21:18:52.613Z,97998.41
2023-01-06T21:21:19.007Z,98008.97
2023-01-06T21:23:48.604Z,98004.88
2023-01-06T21:26:15.102Z,98012.94
2023-01-06T21:28:41.518Z,98003.22
2023-01-06T21:31:08.127Z,98006.75
2023-01-06T21:33:34.676Z,98012.94
2023-01-06T21:36:01.095Z,98019.91
2023-01-06T21:38:28.366Z,98021.88
2023-01-06T21:41:14.724Z,98019.38
2023-01-06T21:43:41.164Z,98013.38
2023-01-06T21:46:07.741Z,98013.75
2023-01-06T21:48:34.294Z,98027.78
2023-01-06T21:51:00.883Z,98033.84
2023-01-06T21:53:30.440Z,98041.09
2023-01-06T21:55:56.885Z,98043.63
2023-01-06T21:58:23.451Z,98044.28
2023-01-06T22:00:52.933Z,98049.59
2023-01-06T22:03:19.515Z,98046.59
2023-01-06T22:05:46.278Z,98051.56
2023-01-06T22:08:13.105Z,98053.22
2023-01-06T22:10:42.143Z,98061.97
2023-01-06T22:13:11.223Z,98055.06
2023-01-06T22:15:37.671Z,98056.03
2023-01-06T22:18:05.121Z,98066.63
2023-01-06T22:20:32.311Z,98072.69
2023-01-06T22:23:02.294Z,98066.91
2023-01-06T22:25:29.226Z,98074.34
2023-01-06T22:27:55.680Z,98077.38
2023-01-06T22:30:22.131Z,98086.56
2023-01-06T22:32:49.010Z,98081.91
2023-01-06T22:35:17.147Z,98090.19
2023-01-06T22:37:43.837Z,98085.25
2023-01-06T22:40:12.136Z,98083.56
2023-01-06T22:42:38.762Z,98081.28
2023-01-06T22:45:06.221Z,98089.38
2023-01-06T22:47:32.945Z,98073.53
2023-01-06T22:50:00.678Z,98082.66
2023-01-06T22:52:27.481Z,98095.84
2023-01-06T22:54:53.880Z,98086.94
2023-01-06T22:57:20.504Z,98087.94
2023-01-06T22:59:46.915Z,98100.78
2023-01-06T23:02:13.964Z,98091.00
2023-01-06T23:04:40.504Z,98095.16
2023-01-06T23:07:07.156Z,98092.50
2023-01-06T23:09:34.090Z,98096.97
2023-01-06T23:12:00.509Z,98100.84
2023-01-06T23:14:27.348Z,98113.56
2023-01-06T23:16:53.782Z,98108.09
2023-01-06T23:19:20.269Z,98122.28
2023-01-06T23:21:46.940Z,98118.97
2023-01-06T23:24:13.597Z,98109.78
2023-01-06T23:26:45.048Z,98119.63
2023-01-06T23:29:12.580Z,98113.69
2023-01-06T23:31:44.635Z,98117.00
2023-01-06T23:34:14.197Z,98120.66
2023-01-06T23:36:41.732Z,98108.41
2023-01-06T23:39:11.752Z,98112.38
2023-01-06T23:41:39.684Z,98114.34
2023-01-06T23:44:06.624Z,98112.84
2023-01-06T23:46:36.587Z,98114.00
2023-01-06T23:49:04.104Z,98108.72
2023-01-06T23:51:32.234Z,98114.00
2023-01-06T23:53:59.875Z,98122.63
2023-01-06T23:56:28.347Z,98113.50
2023-01-06T23:58:57.088Z,98110.69
